createdAt,value
2019-06-01T00:00:58.767Z,13.10
2019-06-01T00:03:31.456Z,13.10
2019-06-01T00:06:03.464Z,13.00
2019-06-01T00:08:35.285Z,13.00
2019-06-01T00:11:07.108Z,12.90
2019-06-01T00:13:39.477Z,12.90
2019-06-01T00:16:11.851Z,12.80
2019-06-01T00:18:44.610Z,12.70
2019-06-01T00:21:16.457Z,12.70
2019-06-01T00:23:48.723Z,12.70
2019-06-01T00:26:20.619Z,12.70
2019-06-01T00:28:53.012Z,12.70
2019-06-01T00:31:25.046Z,12.60
2019-06-01T00:33:57.394Z,12.60
2019-06-01T00:36:29.243Z,12.60
2019-06-01T00:39:01.124Z,12.60
2019-06-01T00:41:34.035Z,12.50
2019-06-01T00:44:06.264Z,12.50
2019-06-01T00:46:38.577Z,12.50
2019-06-01T00:49:10.830Z,12.40
2019-06-01T00:51:42.881Z,12.40
2019-06-01T00:54:15.148Z,12.40
2019-06-01T00:56:47.458Z,12.40
2019-06-01T00:59:19.351Z,12.30
2019-06-01T01:01:52.402Z,12.30
2019-06-01T01:04:24.651Z,12.30
2019-06-01T01:06:57.430Z,12.30
2019-06-01T01:09:29.291Z,12.30
2019-06-01T01:12:01.064Z,12.30
2019-06-01T01:14:33.459Z,12.30
2019-06-01T01:17:05.433Z,12.30
2019-06-01T01:19:37.282Z,12.30
2019-06-01T01:22:09.685Z,12.30
2019-06-01T01:24:41.427Z,12.30
2019-06-01T01:27:13.280Z,12.30
2019-06-01T01:29:46.750Z,12.30
2019-06-01T01:32:18.780Z,12.20
2019-06-01T01:35:03.231Z,12.20
2019-06-01T01:37:35.350Z,12.20
2019-06-01T01:40:07.520Z,12.20
2019-06-01T01:42:40.359Z,12.10
2019-06-01T01:45:12.527Z,12.10
2019-06-01T01:47:45.148Z,12.10
2019-06-01T01:50:16.973Z,12.10
2019-06-01T01:52:50.543Z,12.10
2019-06-01T01:55:22.447Z,12.10
2019-06-01T01:57:55.403Z,12.00
2019-06-01T02:00:54.529Z,12.00
2019-06-01T02:03:26.520Z,12.00
2019-06-01T02:05:59.099Z,12.00
2019-06-01T02:08:31.113Z,12.00
2019-06-01T02:11:03.005Z,11.90
2019-06-01T02:13:35.354Z,11.80
2019-06-01T02:16:07.120Z,11.80
2019-06-01T02:18:39.473Z,11.80
2019-06-01T02:21:11.279Z,11.90
2019-06-01T02:23:43.158Z,11.90
2019-06-01T02:26:15.510Z,11.80
2019-06-01T02:28:47.366Z,11.90
2019-06-01T02:31:19.246Z,11.80
2019-06-01T02:33:51.104Z,11.70
2019-06-01T02:36:23.275Z,11.70
2019-06-01T02:38:56.541Z,11.60
2019-06-01T02:41:28.259Z,11.60
2019-06-01T02:44:01.638Z,11.50
2019-06-01T02:46:35.789Z,11.50
2019-06-01T02:49:07.454Z,11.50
2019-06-01T02:51:39.790Z,11.50
2019-06-01T02:54:11.619Z,11.50
2019-06-01T02:56:43.498Z,11.50
2019-06-01T02:59:15.349Z,11.50
2019-06-01T03:01:56.698Z,11.40
2019-06-01T03:04:21.565Z,11.40
2019-06-01T03:06:55.363Z,11.40
2019-06-01T03:09:28.955Z,11.40
2019-06-01T03:12:04.648Z,11.40
2019-06-01T03:14:38.239Z,11.40
2019-06-01T03:17:13.014Z,11.40
2019-06-01T03:19:47.162Z,11.40
2019-06-01T03:22:22.276Z,11.40
2019-06-01T03:24:56.242Z,11.40
2019-06-01T03:27:30.509Z,11.40
2019-06-01T03:30:08.885Z,11.40
2019-06-01T03:32:39.741Z,11.50
2019-06-01T03:35:13.079Z,11.50
2019-06-01T03:37:45.099Z,11.50
2019-06-01T03:40:23.686Z,11.60
2019-06-01T03:42:49.591Z,11.60
2019-06-01T03:45:27.166Z,11.70
2019-06-01T03:47:59.021Z,11.70
2019-06-01T03:50:30.439Z,11.70
2019-06-01T03:53:02.255Z,11.80
2019-06-01T03:55:34.151Z,11.90
2019-06-01T03:58:07.176Z,11.90
2019-06-01T04:00:39.166Z,11.90
2019-06-01T04:03:11.204Z,12.00
2019-06-01T04:05:42.990Z,12.00
2019-06-01T04:08:14.441Z,12.00
2019-06-01T04:10:47.296Z,12.10
2019-06-01T04:13:19.179Z,12.10
2019-06-01T04:15:51.548Z,12.20
2019-06-01T04:18:23.324Z,12.30
2019-06-01T04:20:54.770Z,12.50
2019-06-01T04:23:26.495Z,13.00
2019-06-01T04:25:58.943Z,13.50
2019-06-01T04:28:30.762Z,14.00
2019-06-01T04:31:04.365Z,14.30
2019-06-01T04:33:36.824Z,14.60
2019-06-01T04:36:09.005Z,15.20
2019-06-01T04:38:40.798Z,15.80
2019-06-01T04:41:14.004Z,16.40
2019-06-01T04:43:47.171Z,17.00
2019-06-01T04:46:23.412Z,17.50
2019-06-01T04:48:55.477Z,17.90
2019-06-01T04:51:27.595Z,18.20
2019-06-01T04:54:06.886Z,18.60
2019-06-01T04:56:39.238Z,18.90
2019-06-01T04:59:11.335Z,19.10
2019-06-01T05:01:43.237Z,19.30
2019-06-01T05:04:15.621Z,19.50
2019-06-01T05:06:47.355Z,19.70
2019-06-01T05:09:24.489Z,19.90
2019-06-01T05:12:11.392Z,20.20
2019-06-01T05:14:44.444Z,20.50
2019-06-01T05:17:19.051Z,20.80
2019-06-01T05:19:52.505Z,20.90
2019-06-01T05:22:26.125Z,21.00
2019-06-01T05:24:58.306Z,21.20
2019-06-01T05:27:30.339Z,21.30
2019-06-01T05:30:04.584Z,21.40
2019-06-01T05:32:42.734Z,21.50
2019-06-01T05:35:15.822Z,21.50
2019-06-01T05:37:50.070Z,21.60
2019-06-01T05:40:23.718Z,21.60
2019-06-01T05:42:55.856Z,21.60
2019-06-01T05:45:28.218Z,21.70
2019-06-01T05:48:00.960Z,21.70
2019-06-01T05:50:32.946Z,21.70
2019-06-01T05:53:05.588Z,21.70
2019-06-01T05:55:37.683Z,21.60
2019-06-01T05:58:10.930Z,21.50
2019-06-01T06:00:47.144Z,21.40
2019-06-01T06:03:22.267Z,21.30
2019-06-01T06:05:53.323Z,21.20
2019-06-01T06:08:26.039Z,21.20
2019-06-01T06:10:58.080Z,21.00
2019-06-01T06:13:30.369Z,21.00
2019-06-01T06:16:02.606Z,21.00
2019-06-01T06:18:34.615Z,21.00
2019-06-01T06:21:06.589Z,21.00
2019-06-01T06:23:39.347Z,21.10
2019-06-01T06:26:15.022Z,21.10
2019-06-01T06:28:48.113Z,21.00
2019-06-01T06:31:21.161Z,21.10
2019-06-01T06:33:56.609Z,21.10
2019-06-01T06:36:27.512Z,21.20
2019-06-01T06:39:00.104Z,21.30
2019-06-01T06:41:32.659Z,21.30
2019-06-01T06:44:04.690Z,21.40
2019-06-01T06:46:36.752Z,21.50
2019-06-01T06:49:10.218Z,21.50
2019-06-01T06:51:42.877Z,21.60
2019-06-01T06:54:16.127Z,21.60
2019-06-01T06:56:49.232Z,21.70
2019-06-01T06:59:22.682Z,21.70
2019-06-01T07:01:54.875Z,21.70
2019-06-01T07:04:27.533Z,21.70
2019-06-01T07:06:59.814Z,21.70
2019-06-01T07:09:32.050Z,21.70
2019-06-01T07:12:04.519Z,21.70
2019-06-01T07:14:37.148Z,21.80
2019-06-01T07:17:09.506Z,21.70
2019-06-01T07:19:41.543Z,21.70
2019-06-01T07:22:16.844Z,21.80
2019-06-01T07:24:51.969Z,21.80
2019-06-01T07:27:26.130Z,21.80
2019-06-01T07:29:58.963Z,21.90
2019-06-01T07:32:32.853Z,21.90
2019-06-01T07:35:06.828Z,22.00
2019-06-01T07:37:38.939Z,22.10
2019-06-01T07:40:13.670Z,22.10
2019-06-01T07:42:44.933Z,22.20
2019-06-01T07:45:17.502Z,22.30
2019-06-01T07:47:54.954Z,22.40
2019-06-01T07:50:28.030Z,22.50
2019-06-01T07:53:00.216Z,22.60
2019-06-01T07:55:32.745Z,22.60
2019-06-01T07:58:04.827Z,22.70
2019-06-01T08:00:38.537Z,22.80
2019-06-01T08:03:12.669Z,22.80
2019-06-01T08:05:45.169Z,22.90
2019-06-01T08:08:17.856Z,23.00
2019-06-01T08:10:50.147Z,23.10
2019-06-01T08:13:23.692Z,23.10
2019-06-01T08:15:56.141Z,23.20
2019-06-01T08:18:30.138Z,23.10
2019-06-01T08:21:04.381Z,23.10
2019-06-01T08:23:36.948Z,23.20
2019-06-01T08:26:11.013Z,23.30
2019-06-01T08:28:43.028Z,23.30
2019-06-01T08:31:15.721Z,23.40
2019-06-01T08:33:48.290Z,23.40
2019-06-01T08:36:20.577Z,23.50
2019-06-01T08:38:53.216Z,23.60
2019-06-01T08:41:25.561Z,23.70
2019-06-01T08:43:59.624Z,23.80
2019-06-01T08:46:33.687Z,23.90
2019-06-01T08:49:06.522Z,24.00
2019-06-01T08:51:38.701Z,24.20
2019-06-01T08:54:11.199Z,24.30
2019-06-01T08:56:44.399Z,24.40
2019-06-01T08:59:16.741Z,24.40
2019-06-01T09:01:48.785Z,24.50
2019-06-01T09:04:21.158Z,24.60
2019-06-01T09:06:53.351Z,24.70
2019-06-01T09:09:27.272Z,24.80
2019-06-01T09:11:59.932Z,25.00
2019-06-01T09:14:33.369Z,25.20
2019-06-01T09:17:05.587Z,25.40
2019-06-01T09:19:38.109Z,25.50
2019-06-01T09:22:11.608Z,25.70
2019-06-01T09:24:44.540Z,25.80
2019-06-01T09:27:16.680Z,25.90
2019-06-01T09:29:48.727Z,25.90
2019-06-01T09:32:21.747Z,25.90
2019-06-01T09:34:53.849Z,26.10
2019-06-01T09:37:26.453Z,26.00
2019-06-01T09:39:58.902Z,26.00
2019-06-01T09:42:33.271Z,25.90
2019-06-01T09:45:06.606Z,25.80
2019-06-01T09:47:38.634Z,25.80
2019-06-01T09:50:16.303Z,25.80
2019-06-01T09:52:49.815Z,25.80
2019-06-01T09:55:21.851Z,25.70
2019-06-01T09:57:56.380Z,25.60
2019-06-01T10:00:30.256Z,25.60
2019-06-01T10:03:04.143Z,25.50
2019-06-01T10:05:36.729Z,25.60
2019-06-01T10:08:11.961Z,25.70
2019-06-01T10:10:45.154Z,25.70
2019-06-01T10:13:17.874Z,25.60
2019-06-01T10:15:50.817Z,25.60
2019-06-01T10:18:26.898Z,25.60
2019-06-01T10:21:00.307Z,25.70
2019-06-01T10:23:34.515Z,25.90
2019-06-01T10:26:07.531Z,25.90
2019-06-01T10:28:40.051Z,26.00
2019-06-01T10:31:12.490Z,26.10
2019-06-01T10:33:45.141Z,25.90
2019-06-01T10:36:21.151Z,26.00
2019-06-01T10:38:52.681Z,26.00
2019-06-01T10:41:25.476Z,26.10
2019-06-01T10:43:58.504Z,26.30
2019-06-01T10:46:31.807Z,26.40
2019-06-01T10:49:04.198Z,26.50
2019-06-01T10:51:38.150Z,26.40
2019-06-01T10:54:10.626Z,26.30
2019-06-01T10:56:42.840Z,26.40
2019-06-01T10:59:15.497Z,26.50
2019-06-01T11:01:47.538Z,26.70
2019-06-01T11:04:19.598Z,26.90
2019-06-01T11:06:52.249Z,27.20
2019-06-01T11:09:25.986Z,27.40
2019-06-01T11:11:57.788Z,27.50
2019-06-01T11:14:30.660Z,27.50
2019-06-01T11:17:05.505Z,27.70
2019-06-01T11:19:37.740Z,28.00
2019-06-01T11:22:10.205Z,28.40
2019-06-01T11:24:43.925Z,28.80
2019-06-01T11:27:16.771Z,29.20
2019-06-01T11:29:52.532Z,29.60
2019-06-01T11:32:25.164Z,29.90
2019-06-01T11:34:58.140Z,30.10
2019-06-01T11:37:30.261Z,30.30
2019-06-01T11:40:03.832Z,30.50
2019-06-01T11:42:38.624Z,30.70
2019-06-01T11:45:11.807Z,30.60
2019-06-01T11:47:45.113Z,30.50
2019-06-01T11:50:17.514Z,30.60
2019-06-01T11:52:51.235Z,30.70
2019-06-01T11:55:23.400Z,30.80
2019-06-01T11:57:56.136Z,30.70
2019-06-01T12:00:29.828Z,30.70
2019-06-01T12:03:02.070Z,30.50
2019-06-01T12:05:35.664Z,30.20
2019-06-01T12:08:09.016Z,29.80
2019-06-01T12:10:43.174Z,29.60
2019-06-01T12:13:15.367Z,29.60
2019-06-01T12:15:48.052Z,29.80
2019-06-01T12:18:20.056Z,30.10
2019-06-01T12:20:52.209Z,30.40
2019-06-01T12:23:30.285Z,30.80
2019-06-01T12:26:04.142Z,31.20
2019-06-01T12:28:37.639Z,31.50
2019-06-01T12:31:10.853Z,31.70
2019-06-01T12:33:44.196Z,31.90
2019-06-01T12:36:16.396Z,32.00
2019-06-01T12:38:52.548Z,32.00
2019-06-01T12:41:25.114Z,32.00
2019-06-01T12:44:15.992Z,32.00
2019-06-01T12:46:49.010Z,31.80
2019-06-01T12:49:21.392Z,31.60
2019-06-01T12:51:53.939Z,31.50
2019-06-01T12:54:26.214Z,31.50
2019-06-01T12:56:59.359Z,31.50
2019-06-01T12:59:31.939Z,31.20
2019-06-01T13:02:04.659Z,30.90
2019-06-01T13:04:36.753Z,30.70
2019-06-01T13:07:08.906Z,30.50
2019-06-01T13:09:42.547Z,30.30
2019-06-01T13:12:15.534Z,29.90
2019-06-01T13:14:47.727Z,29.60
2019-06-01T13:17:19.907Z,29.50
2019-06-01T13:19:52.107Z,29.50
2019-06-01T13:22:24.122Z,29.40
2019-06-01T13:24:56.260Z,29.40
2019-06-01T13:27:28.816Z,29.50
2019-06-01T13:30:01.442Z,29.60
2019-06-01T13:32:33.934Z,29.70
2019-06-01T13:35:06.836Z,29.80
2019-06-01T13:37:39.345Z,29.80
2019-06-01T13:40:11.591Z,29.40
2019-06-01T13:42:44.859Z,29.40
2019-06-01T13:45:18.648Z,29.40
2019-06-01T13:47:51.878Z,29.50
2019-06-01T13:50:24.844Z,29.60
2019-06-01T13:52:57.000Z,29.80
2019-06-01T13:55:29.356Z,30.00
2019-06-01T13:58:01.639Z,30.10
2019-06-01T14:00:33.894Z,30.20
2019-06-01T14:03:06.341Z,30.10
2019-06-01T14:05:39.099Z,29.90
2019-06-01T14:08:28.066Z,29.60
2019-06-01T14:10:47.219Z,29.40
2019-06-01T14:13:20.267Z,29.50
2019-06-01T14:15:53.602Z,29.50
2019-06-01T14:18:26.202Z,29.50
2019-06-01T14:20:58.489Z,29.50
2019-06-01T14:23:31.030Z,29.60
2019-06-01T14:26:04.708Z,29.60
2019-06-01T14:28:37.322Z,29.50
2019-06-01T14:31:09.415Z,29.40
2019-06-01T14:33:41.529Z,29.30
2019-06-01T14:36:14.398Z,29.40
2019-06-01T14:38:49.499Z,29.50
2019-06-01T14:41:21.746Z,29.50
2019-06-01T14:43:53.869Z,29.40
2019-06-01T14:46:25.906Z,29.30
2019-06-01T14:48:58.079Z,29.30
2019-06-01T14:51:30.787Z,29.30
2019-06-01T14:54:02.907Z,29.40
2019-06-01T14:56:36.060Z,29.50
2019-06-01T14:59:08.803Z,29.50
2019-06-01T15:01:41.221Z,29.50
2019-06-01T15:04:14.778Z,29.50
2019-06-01T15:06:48.087Z,29.60
2019-06-01T15:09:21.026Z,29.60
2019-06-01T15:11:54.400Z,29.60
2019-06-01T15:14:26.752Z,29.60
2019-06-01T15:16:58.836Z,29.60
2019-06-01T15:19:32.222Z,29.60
2019-06-01T15:22:04.176Z,29.50
2019-06-01T15:24:36.796Z,29.50
2019-06-01T15:27:08.752Z,29.60
2019-06-01T15:29:41.120Z,29.60
2019-06-01T15:32:13.252Z,29.60
2019-06-01T15:34:45.388Z,29.60
2019-06-01T15:37:17.589Z,29.60
2019-06-01T15:39:50.548Z,29.60
2019-06-01T15:42:22.698Z,29.60
2019-06-01T15:44:55.254Z,29.50
2019-06-01T15:47:27.344Z,29.50
2019-06-01T15:50:00.354Z,29.50
2019-06-01T15:52:32.431Z,29.50
2019-06-01T15:55:05.866Z,29.60
2019-06-01T15:57:38.165Z,29.70
2019-06-01T16:00:11.435Z,29.80
2019-06-01T16:02:44.409Z,29.90
2019-06-01T16:05:16.733Z,30.10
2019-06-01T16:07:49.633Z,30.20
2019-06-01T16:10:22.917Z,30.30
2019-06-01T16:12:57.341Z,30.40
2019-06-01T16:15:31.633Z,30.40
2019-06-01T16:18:04.307Z,30.20
2019-06-01T16:20:36.784Z,30.10
2019-06-01T16:23:08.823Z,30.10
2019-06-01T16:25:40.942Z,30.10
2019-06-01T16:28:13.430Z,29.90
2019-06-01T16:30:46.066Z,29.90
2019-06-01T16:33:19.771Z,29.90
2019-06-01T16:35:52.465Z,30.00
2019-06-01T16:38:25.569Z,30.10
2019-06-01T16:40:59.147Z,30.30
2019-06-01T16:43:31.611Z,30.80
2019-06-01T16:46:04.059Z,31.80
2019-06-01T16:48:36.390Z,33.20
2019-06-01T16:51:08.714Z,34.70
2019-06-01T16:53:41.398Z,35.60
2019-06-01T16:56:14.941Z,36.60
2019-06-01T16:58:48.282Z,37.60
2019-06-01T17:01:20.741Z,39.10
2019-06-01T17:03:53.268Z,40.40
2019-06-01T17:06:25.549Z,41.30
2019-06-01T17:08:58.696Z,41.40
2019-06-01T17:11:31.370Z,41.70
2019-06-01T17:14:04.841Z,42.10
2019-06-01T17:16:36.875Z,42.10
2019-06-01T17:19:09.137Z,42.10
2019-06-01T17:21:41.406Z,42.00
2019-06-01T17:24:13.749Z,41.90
2019-06-01T17:26:46.417Z,41.80
2019-06-01T17:29:19.790Z,42.20
2019-06-01T17:31:54.687Z,43.10
2019-06-01T17:34:26.359Z,44.00
2019-06-01T17:37:00.553Z,44.80
2019-06-01T17:39:34.128Z,45.30
2019-06-01T17:42:07.219Z,45.60
2019-06-01T17:44:39.025Z,45.40
2019-06-01T17:47:12.136Z,44.70
2019-06-01T17:49:44.274Z,44.10
2019-06-01T17:52:16.740Z,43.90
2019-06-01T17:54:48.738Z,44.00
2019-06-01T17:57:20.816Z,43.50
2019-06-01T17:59:53.372Z,42.60
2019-06-01T18:02:26.108Z,41.20
2019-06-01T18:04:58.160Z,40.00
2019-06-01T18:07:30.677Z,38.90
2019-06-01T18:10:04.682Z,38.40
2019-06-01T18:12:38.162Z,38.10
2019-06-01T18:15:10.324Z,37.60
2019-06-01T18:17:42.996Z,37.00
2019-06-01T18:20:15.822Z,36.10
2019-06-01T18:22:48.482Z,34.90
2019-06-01T18:25:23.217Z,33.80
2019-06-01T18:27:55.920Z,32.80
2019-06-01T18:30:28.815Z,31.90
2019-06-01T18:33:00.979Z,31.10
2019-06-01T18:35:33.697Z,30.40
2019-06-01T18:38:06.110Z,29.80
2019-06-01T18:40:39.748Z,29.30
2019-06-01T18:43:15.598Z,28.70
2019-06-01T18:45:48.928Z,28.20
2019-06-01T18:48:22.681Z,27.60
2019-06-01T18:50:57.388Z,27.20
2019-06-01T18:53:30.403Z,26.80
2019-06-01T18:56:04.026Z,26.50
2019-06-01T18:58:36.864Z,26.10
2019-06-01T19:01:10.577Z,25.80
2019-06-01T19:03:43.431Z,25.40
2019-06-01T19:06:15.962Z,25.00
2019-06-01T19:08:48.509Z,24.70
2019-06-01T19:11:32.781Z,24.40
2019-06-01T19:13:54.717Z,24.20
2019-06-01T19:16:26.992Z,23.90
2019-06-01T19:18:59.579Z,23.70
2019-06-01T19:21:31.569Z,23.50
2019-06-01T19:24:06.354Z,23.40
2019-06-01T19:26:38.763Z,23.30
2019-06-01T19:29:10.873Z,23.20
2019-06-01T19:31:43.799Z,23.00
2019-06-01T19:34:17.123Z,22.90
2019-06-01T19:36:52.861Z,22.70
2019-06-01T19:39:25.458Z,22.50
2019-06-01T19:41:57.663Z,22.40
2019-06-01T19:44:31.718Z,22.20
2019-06-01T19:47:03.836Z,22.00
2019-06-01T19:49:37.054Z,21.90
2019-06-01T19:52:10.830Z,21.70
2019-06-01T19:54:43.563Z,21.50
2019-06-01T19:57:18.928Z,21.40
2019-06-01T19:59:50.604Z,21.20
2019-06-01T20:02:31.900Z,21.00
2019-06-01T20:04:56.605Z,20.90
2019-06-01T20:07:28.685Z,20.90
2019-06-01T20:10:01.424Z,20.80
2019-06-01T20:12:35.928Z,20.70
2019-06-01T20:15:08.839Z,20.60
2019-06-01T20:17:42.072Z,20.50
2019-06-01T20:20:16.939Z,20.40
2019-06-01T20:22:50.294Z,20.30
2019-06-01T20:25:22.897Z,20.20
2019-06-01T20:27:55.522Z,20.10
2019-06-01T20:30:28.870Z,20.00
2019-06-01T20:33:01.388Z,19.90
2019-06-01T20:35:34.060Z,19.80
2019-06-01T20:38:06.921Z,19.70
2019-06-01T20:40:39.554Z,19.60
2019-06-01T20:43:12.278Z,19.50
2019-06-01T20:45:47.773Z,19.50
2019-06-01T20:48:20.935Z,19.40
2019-06-01T20:50:53.180Z,19.30
2019-06-01T20:53:25.465Z,19.20
2019-06-01T20:55:58.516Z,19.10
2019-06-01T20:58:31.144Z,19.20
2019-06-01T21:01:03.955Z,19.10
2019-06-01T21:03:36.057Z,19.00
2019-06-01T21:06:08.677Z,19.00
2019-06-01T21:08:41.962Z,19.00
2019-06-01T21:11:15.848Z,19.00
2019-06-01T21:13:49.008Z,19.00
2019-06-01T21:16:22.325Z,19.00
2019-06-01T21:18:54.486Z,18.90
2019-06-01T21:21:27.078Z,18.80
2019-06-01T21:23:59.512Z,18.70
2019-06-01T21:26:32.217Z,18.60
2019-06-01T21:29:05.094Z,18.50
2019-06-01T21:31:37.690Z,18.40
2019-06-01T21:34:09.758Z,18.20
2019-06-01T21:36:42.123Z,18.20
2019-06-01T21:39:15.687Z,18.00
2019-06-01T21:41:48.096Z,18.00
2019-06-01T21:44:20.236Z,17.90
2019-06-01T21:46:52.617Z,17.90
2019-06-01T21:49:25.932Z,17.80
2019-06-01T21:51:58.511Z,17.80
2019-06-01T21:54:30.445Z,17.70
2019-06-01T21:57:02.521Z,17.60
2019-06-01T21:59:35.164Z,17.50
2019-06-01T22:02:09.345Z,17.40
2019-06-01T22:04:42.444Z,17.30
2019-06-01T22:07:15.192Z,17.20
2019-06-01T22:09:47.839Z,17.10
2019-06-01T22:12:21.380Z,17.10
2019-06-01T22:14:53.774Z,17.00
2019-06-01T22:17:25.978Z,16.90
2019-06-01T22:19:58.053Z,16.90
2019-06-01T22:22:31.591Z,16.80
2019-06-01T22:25:03.975Z,16.70
2019-06-01T22:27:36.153Z,16.70
2019-06-01T22:30:09.552Z,16.60
2019-06-01T22:32:41.721Z,16.60
2019-06-01T22:35:14.763Z,16.50
2019-06-01T22:37:47.301Z,16.50
2019-06-01T22:40:20.509Z,16.40
2019-06-01T22:42:52.930Z,16.30
2019-06-01T22:45:26.953Z,16.30
2019-06-01T22:47:59.275Z,16.30
2019-06-01T22:50:33.026Z,16.30
2019-06-01T22:53:05.381Z,16.20
2019-06-01T22:55:37.489Z,16.20
2019-06-01T22:58:09.376Z,16.20
2019-06-01T23:00:41.746Z,16.20
2019-06-01T23:03:14.088Z,16.10
2019-06-01T23:05:46.616Z,16.10
2019-06-01T23:08:18.682Z,16.00
2019-06-01T23:10:51.818Z,16.00
2019-06-01T23:13:24.035Z,15.90
2019-06-01T23:15:55.996Z,15.90
2019-06-01T23:18:29.810Z,15.90
2019-06-01T23:21:02.079Z,15.80
2019-06-01T23:23:34.273Z,15.80
2019-06-01T23:26:06.861Z,15.80
2019-06-01T23:28:40.502Z,15.80
2019-06-01T23:31:12.712Z,15.70
2019-06-01T23:33:44.917Z,15.70
2019-06-01T23:36:17.132Z,15.60
2019-06-01T23:38:49.764Z,15.60
2019-06-01T23:41:22.462Z,15.60
2019-06-01T23:44:10.296Z,15.60
2019-06-01T23:46:29.157Z,15.50
2019-06-01T23:49:01.815Z,15.40
2019-06-01T23:51:34.048Z,15.30
2019-06-01T23:54:06.931Z,15.30
2019-06-01T23:56:39.125Z,15.20
2019-06-01T23:59:11.739Z,15.10
